Time,TemperatureF,DewpointF,PressureIn,WindDirection,WindDirectionDegrees,WindSpeedMPH,WindSpeedGustMPH,Humidity,HourlyPrecipIn,Conditions,Clouds,dailyrainin,SoftwareType,DateUTC
2013-07-24 00:06:00,68.5,67.0,29.81,ESE,110,0.0,1.0,93,0.00,,,0.00,weatherlink.com 1.10,2013-07-24 05:06:00,
2013-07-24 00:21:00,68.6,66.0,29.82,SE,139,0.0,2.0,92,0.00,,,0.00,weatherlink.com 1.10,2013-07-24 05:21:00,
2013-07-24 00:36:00,68.7,66.0,29.82,SE,139,0.0,1.0,92,0.00,,,0.00,weatherlink.com 1.10,2013-07-24 05:36:00,
2013-07-24 00:51:00,68.7,66.0,29.82,SE,141,0.0,1.0,92,0.00,,,0.00,weatherlink.com 1.10,2013-07-24 05:51:00,
2013-07-24 01:06:00,68.5,67.0,29.84,SE,139,0.0,0.0,93,0.00,,,0.00,weatherlink.com 1.10,2013-07-24 06:06:00,
2013-07-24 01:36:00,68.7,67.0,29.83,South,169,0.0,1.0,93,0.00,,,0.00,weatherlink.com 1.10,2013-07-24 06:36:00,
2013-07-24 01:51:00,68.8,67.0,29.82,South,186,0.0,0.0,93,0.00,,,0.00,weatherlink.com 1.10,2013-07-24 06:51:00,
2013-07-24 02:06:00,68.8,67.0,29.81,South,184,0.0,0.0,93,0.00,,,0.00,weatherlink.com 1.10,2013-07-24 07:06:00,
2013-07-24 02:21:00,68.8,67.0,29.83,WSW,240,1.0,2.0,93,0.00,,,0.00,weatherlink.com 1.10,2013-07-24 07:21:00,
2013-07-24 02:36:00,69.0,67.0,29.82,WSW,255,1.0,2.0,93,0.00,,,0.00,weatherlink.com 1.10,2013-07-24 07:36:00,
2013-07-24 02:51:00,69.1,67.0,29.82,NW,326,1.0,1.0,93,0.00,,,0.00,weatherlink.com 1.10,2013-07-24 07:51:00,
2013-07-24 03:06:00,69.0,67.0,29.81,SW,215,0.0,1.0,93,0.00,,,0.00,weatherlink.com 1.10,2013-07-24 08:06:00,
2013-07-24 03:21:00,68.9,67.0,29.82,SW,215,0.0,1.0,94,0.00,,,0.00,weatherlink.com 1.10,2013-07-24 08:21:00,
2013-07-24 03:36:00,68.8,67.0,29.84,SW,236,1.0,2.0,94,0.00,,,0.00,weatherlink.com 1.10,2013-07-24 08:36:00,
2013-07-24 03:51:00,69.3,68.0,29.84,SW,227,0.0,3.0,94,0.00,,,0.00,weatherlink.com 1.10,2013-07-24 08:51:00,
2013-07-24 04:06:00,69.2,68.0,29.84,SW,236,0.0,1.0,94,0.00,,,0.00,weatherlink.com 1.10,2013-07-24 09:06:00,
2013-07-24 04:21:00,68.9,68.0,29.84,SW,217,0.0,1.0,95,0.00,,,0.00,weatherlink.com 1.10,2013-07-24 09:21:00,
2013-07-24 04:36:00,68.6,67.0,29.84,SW,216,0.0,1.0,95,0.00,,,0.00,weatherlink.com 1.10,2013-07-24 09:36:00,
2013-07-24 04:51:00,68.6,68.0,29.83,SW,218,0.0,3.0,96,0.00,,,0.00,weatherlink.com 1.10,2013-07-24 09:51:00,
2013-07-24 05:06:00,68.8,68.0,29.83,SSW,196,1.0,3.0,96,0.00,,,0.00,weatherlink.com 1.10,2013-07-24 10:06:00,
2013-07-24 05:21:00,69.2,68.0,29.83,SSW,204,0.0,3.0,95,0.00,,,0.00,weatherlink.com 1.10,2013-07-24 10:21:00,
2013-07-24 05:36:00,69.2,68.0,29.84,WNW,290,1.0,4.0,95,0.00,,,0.00,weatherlink.com 1.10,2013-07-24 10:36:00,
2013-07-24 05:51:00,69.1,68.0,29.84,SW,221,0.0,3.0,95,0.00,,,0.00,weatherlink.com 1.10,2013-07-24 10:51:00,
2013-07-24 06:06:00,68.8,67.0,29.84,NNW,327,0.0,3.0,95,0.00,,,0.00,weatherlink.com 1.10,2013-07-24 11:06:00,
2013-07-24 06:21:00,68.5,67.0,29.84,NNW,331,0.0,1.0,95,0.00,,,0.00,weatherlink.com 1.10,2013-07-24 11:21:00,
2013-07-24 06:36:00,68.3,67.0,29.84,SE,128,0.0,3.0,96,0.00,,,0.00,weatherlink.com 1.10,2013-07-24 11:36:00,
2013-07-24 06:51:00,68.4,67.0,29.85,NNW,330,0.0,3.0,96,0.00,,,0.00,weatherlink.com 1.10,2013-07-24 11:51:00,
2013-07-24 07:06:00,68.4,67.0,29.85,ENE,66,1.0,4.0,95,0.00,,,0.00,weatherlink.com 1.10,2013-07-24 12:06:00,
2013-07-24 07:21:00,68.3,67.0,29.86,ENE,63,2.0,3.0,95,0.00,,,0.00,weatherlink.com 1.10,2013-07-24 12:21:00,
2013-07-24 07:36:00,68.4,67.0,29.87,ENE,67,1.0,3.0,95,0.00,,,0.00,weatherlink.com 1.10,2013-07-24 12:36:00,
2013-07-24 07:51:00,69.1,67.0,29.88,NNE,12,0.0,2.0,94,0.00,,,0.00,weatherlink.com 1.10,2013-07-24 12:51:00,
2013-07-24 08:06:00,70.5,68.0,29.88,ENE,67,1.0,3.0,91,0.00,,,0.00,weatherlink.com 1.10,2013-07-24 13:06:00,
2013-07-24 08:21:00,72.3,69.0,29.88,East,92,1.0,3.0,88,0.00,,,0.00,weatherlink.com 1.10,2013-07-24 13:21:00,
2013-07-24 08:37:00,73.4,69.0,29.89,NE,47,0.0,3.0,86,0.00,,,0.00,weatherlink.com 1.10,2013-07-24 13:37:00,
2013-07-24 08:52:00,73.9,69.0,29.89,ESE,114,2.0,2.0,84,0.00,,,0.00,weatherlink.com 1.10,2013-07-24 13:52:00,
2013-07-24 09:07:00,74.7,69.0,29.89,North,354,0.0,4.0,83,0.00,,,0.00,weatherlink.com 1.10,2013-07-24 14:07:00,
2013-07-24 09:22:00,74.8,69.0,29.90,East,91,1.0,2.0,83,0.00,,,0.00,weatherlink.com 1.10,2013-07-24 14:22:00,
2013-07-24 09:38:00,75.5,69.0,29.90,ESE,108,1.0,3.0,81,0.00,,,0.00,weatherlink.com 1.10,2013-07-24 14:38:00,
2013-07-24 09:52:00,77.5,70.0,29.90,WNW,282,2.0,3.0,78,0.00,,,0.00,weatherlink.com 1.10,2013-07-24 14:52:00,
2013-07-24 10:07:00,78.1,70.0,29.91,East,94,1.0,4.0,77,0.00,,,0.00,weatherlink.com 1.10,2013-07-24 15:07:00,
2013-07-24 10:22:00,79.0,70.0,29.91,NNE,25,2.0,3.0,75,0.00,,,0.00,weatherlink.com 1.10,2013-07-24 15:22:00,
2013-07-24 10:37:00,79.9,71.0,29.91,West,274,0.0,3.0,73,0.00,,,0.00,weatherlink.com 1.10,2013-07-24 15:37:00,
2013-07-24 10:52:00,79.3,70.0,29.91,WSW,249,1.0,4.0,74,0.00,,,0.00,weatherlink.com 1.10,2013-07-24 15:52:00,
2013-07-24 11:07:00,79.4,70.0,29.92,ESE,113,2.0,7.0,74,0.00,,,0.00,weatherlink.com 1.10,2013-07-24 16:07:00,
2013-07-24 11:22:00,79.7,71.0,29.92,NW,324,1.0,3.0,74,0.00,,,0.00,weatherlink.com 1.10,2013-07-24 16:22:00,
2013-07-24 11:37:00,79.9,71.0,29.92,NNE,32,1.0,5.0,73,0.00,,,0.00,weatherlink.com 1.10,2013-07-24 16:37:00,
2013-07-24 11:52:00,81.0,72.0,29.92,West,262,5.0,6.0,73,0.00,,,0.00,weatherlink.com 1.10,2013-07-24 16:52:00,
2013-07-24 12:07:00,81.6,71.0,29.92,NNE,16,1.0,3.0,70,0.00,,,0.00,weatherlink.com 1.10,2013-07-24 17:07:00,
2013-07-24 12:22:00,80.9,71.0,29.92,SW,233,1.0,5.0,72,0.00,,,0.00,weatherlink.com 1.10,2013-07-24 17:22:00,
2013-07-24 12:37:00,80.4,69.0,29.92,WNW,300,2.0,7.0,69,0.00,,,0.00,weatherlink.com 1.10,2013-07-24 17:37:00,
2013-07-24 12:52:00,80.8,70.0,29.92,SSE,153,2.0,6.0,69,0.00,,,0.00,weatherlink.com 1.10,2013-07-24 17:52:00,
2013-07-24 13:07:00,81.9,71.0,29.92,ESE,121,4.0,5.0,69,0.00,,,0.00,weatherlink.com 1.10,2013-07-24 18:07:00,
2013-07-24 13:22:00,81.9,70.0,29.91,NW,320,2.0,4.0,68,0.00,,,0.00,weatherlink.com 1.10,2013-07-24 18:22:00,
2013-07-24 13:37:00,80.4,70.0,29.91,NW,308,1.0,4.0,71,0.00,,,0.00,weatherlink.com 1.10,2013-07-24 18:37:00,
2013-07-24 13:52:00,81.0,71.0,29.91,ENE,68,1.0,6.0,72,0.00,,,0.00,weatherlink.com 1.10,2013-07-24 18:52:00,
2013-07-24 14:07:00,82.5,71.0,29.91,ESE,123,2.0,2.0,68,0.00,,,0.00,weatherlink.com 1.10,2013-07-24 19:07:00,
2013-07-24 14:22:00,82.9,70.0,29.91,NE,42,2.0,4.0,65,0.00,,,0.00,weatherlink.com 1.10,2013-07-24 19:22:00,
2013-07-24 14:37:00,82.9,70.0,29.91,North,4,3.0,6.0,65,0.00,,,0.00,weatherlink.com 1.10,2013-07-24 19:37:00,
2013-07-24 14:52:00,82.8,70.0,29.91,NW,317,1.0,5.0,65,0.00,,,0.00,weatherlink.com 1.10,2013-07-24 19:52:00,
2013-07-24 15:07:00,83.3,70.0,29.91,NE,34,1.0,4.0,64,0.00,,,0.00,weatherlink.com 1.10,2013-07-24 20:07:00,
2013-07-24 15:22:00,83.5,69.0,29.91,NNW,335,1.0,5.0,62,0.00,,,0.00,weatherlink.com 1.10,2013-07-24 20:22:00,
2013-07-24 15:37:00,84.6,70.0,29.91,NE,34,0.0,4.0,61,0.00,,,0.00,weatherlink.com 1.10,2013-07-24 20:37:00,
2013-07-24 15:52:00,85.2,68.0,29.91,SW,229,2.0,4.0,57,0.00,,,0.00,weatherlink.com 1.10,2013-07-24 20:52:00,
2013-07-24 16:07:00,85.9,68.0,29.90,WSW,239,3.0,6.0,56,0.00,,,0.00,weatherlink.com 1.10,2013-07-24 21:07:00,
2013-07-24 16:22:00,85.0,69.0,29.90,NW,326,1.0,4.0,58,0.00,,,0.00,weatherlink.com 1.10,2013-07-24 21:22:00,
2013-07-24 16:37:00,85.7,69.0,29.90,NE,44,1.0,3.0,58,0.00,,,0.00,weatherlink.com 1.10,2013-07-24 21:37:00,
2013-07-24 16:52:00,86.5,68.0,29.90,NW,314,3.0,4.0,55,0.00,,,0.00,weatherlink.com 1.10,2013-07-24 21:52:00,
2013-07-24 17:07:00,86.6,69.0,29.90,NE,34,1.0,4.0,56,0.00,,,0.00,weatherlink.com 1.10,2013-07-24 22:07:00,
2013-07-24 17:23:00,86.8,69.0,29.90,NE,36,1.0,4.0,56,0.00,,,0.00,weatherlink.com 1.10,2013-07-24 22:23:00,
2013-07-24 17:38:00,87.0,69.0,29.90,ENE,61,2.0,4.0,55,0.00,,,0.00,weatherlink.com 1.10,2013-07-24 22:38:00,
2013-07-24 17:53:00,86.5,67.0,29.89,ENE,60,2.0,3.0,53,0.00,,,0.00,weatherlink.com 1.10,2013-07-24 22:53:00,
2013-07-24 18:08:00,85.9,67.0,29.90,SE,131,1.0,2.0,54,0.00,,,0.00,weatherlink.com 1.10,2013-07-24 23:08:00,
2013-07-24 18:23:00,84.6,64.0,29.89,NNE,13,1.0,4.0,51,0.00,,,0.00,weatherlink.com 1.10,2013-07-24 23:23:00,
2013-07-24 18:38:00,84.4,65.0,29.89,NW,315,2.0,4.0,52,0.00,,,0.00,weatherlink.com 1.10,2013-07-24 23:38:00,
2013-07-24 18:53:00,83.2,60.0,29.89,East,85,1.0,3.0,46,0.00,,,0.00,weatherlink.com 1.10,2013-07-24 23:53:00,
2013-07-24 19:08:00,82.3,61.0,29.90,ENE,65,2.0,3.0,48,0.00,,,0.00,weatherlink.com 1.10,2013-07-25 00:08:00,
2013-07-24 19:23:00,81.3,61.0,29.90,NE,40,0.0,1.0,51,0.00,,,0.00,weatherlink.com 1.10,2013-07-25 00:23:00,
2013-07-24 19:38:00,80.1,62.0,29.91,East,82,0.0,2.0,54,0.00,,,0.00,weatherlink.com 1.10,2013-07-25 00:38:00,
2013-07-24 19:53:00,79.5,62.0,29.91,ENE,78,0.0,2.0,55,0.00,,,0.00,weatherlink.com 1.10,2013-07-25 00:53:00,
2013-07-24 20:08:00,77.9,63.0,29.91,NE,50,0.0,1.0,60,0.00,,,0.00,weatherlink.com 1.10,2013-07-25 01:08:00,
2013-07-24 20:23:00,76.7,64.0,29.92,ENE,73,0.0,1.0,65,0.00,,,0.00,weatherlink.com 1.10,2013-07-25 01:23:00,
2013-07-24 20:38:00,75.6,64.0,29.92,ENE,73,0.0,1.0,67,0.00,,,0.00,weatherlink.com 1.10,2013-07-25 01:38:00,
2013-07-24 20:53:00,74.7,64.0,29.92,ENE,73,0.0,1.0,69,0.00,,,0.00,weatherlink.com 1.10,2013-07-25 01:53:00,
2013-07-24 21:08:00,73.9,64.0,29.93,ENE,74,0.0,1.0,71,0.00,,,0.00,weatherlink.com 1.10,2013-07-25 02:08:00,
2013-07-24 21:23:00,73.2,63.0,29.94,ENE,73,0.0,1.0,71,0.00,,,0.00,weatherlink.com 1.10,2013-07-25 02:23:00,
2013-07-24 21:38:00,72.8,63.0,29.94,ENE,74,0.0,1.0,71,0.00,,,0.00,weatherlink.com 1.10,2013-07-25 02:38:00,
2013-07-24 21:53:00,72.2,63.0,29.95,ENE,73,0.0,1.0,72,0.00,,,0.00,weatherlink.com 1.10,2013-07-25 02:53:00,
2013-07-24 22:08:00,71.5,62.0,29.96,ENE,72,2.0,2.0,73,0.00,,,0.00,weatherlink.com 1.10,2013-07-25 03:08:00,
2013-07-24 22:23:00,71.0,63.0,29.95,ENE,73,2.0,2.0,75,0.00,,,0.00,weatherlink.com 1.10,2013-07-25 03:23:00,
2013-07-24 22:38:00,70.7,62.0,29.95,ENE,77,2.0,2.0,75,0.00,,,0.00,weatherlink.com 1.10,2013-07-25 03:38:00,
2013-07-24 23:08:00,69.6,62.0,29.96,ENE,75,2.0,2.0,77,0.00,,,0.00,weatherlink.com 1.10,2013-07-25 04:08:00,
2013-07-24 23:24:00,69.3,62.0,29.96,ENE,70,2.0,3.0,77,0.00,,,0.00,weatherlink.com 1.10,2013-07-25 04:24:00,
2013-07-24 23:38:00,68.9,62.0,29.96,ENE,74,2.0,3.0,78,0.00,,,0.00,weatherlink.com 1.10,2013-07-25 04:38:00,
2013-07-24 23:53:00,68.8,62.0,29.97,East,79,2.0,2.0,78,0.00,,,0.00,weatherlink.com 1.10,2013-07-25 04:53:00,